sensor_id;sensor_type;location;lat;lon;timestamp;P1;durP1;ratioP1;P2;durP2;ratioP2
6029;SDS011;3043;42.682;23.376;2022-08-24T00:01:20;14.80;;;10.00;;
6029;SDS011;3043;42.682;23.376;2022-08-24T00:03:46;14.20;;;10.23;;
6029;SDS011;3043;42.682;23.376;2022-08-24T00:06:14;13.83;;;10.17;;
6029;SDS011;3043;42.682;23.376;2022-08-24T00:08:41;14.80;;;9.67;;
6029;SDS011;3043;42.682;23.376;2022-08-24T00:11:08;14.30;;;9.67;;
6029;SDS011;3043;42.682;23.376;2022-08-24T00:13:34;14.80;;;10.80;;
6029;SDS011;3043;42.682;23.376;2022-08-24T00:16:00;15.07;;;10.00;;
6029;SDS011;3043;42.682;23.376;2022-08-24T00:18:26;15.17;;;9.63;;
6029;SDS011;3043;42.682;23.376;2022-08-24T00:20:52;17.33;;;10.70;;
6029;SDS011;3043;42.682;23.376;2022-08-24T00:23:18;14.70;;;10.07;;
6029;SDS011;3043;42.682;23.376;2022-08-24T00:25:44;17.17;;;11.87;;
6029;SDS011;3043;42.682;23.376;2022-08-24T00:28:10;17.57;;;11.20;;
6029;SDS011;3043;42.682;23.376;2022-08-24T00:30:36;16.50;;;12.40;;
6029;SDS011;3043;42.682;23.376;2022-08-24T00:33:01;17.10;;;12.47;;
6029;SDS011;3043;42.682;23.376;2022-08-24T00:35:26;17.27;;;11.37;;
6029;SDS011;3043;42.682;23.376;2022-08-24T00:37:53;15.50;;;11.60;;
6029;SDS011;3043;42.682;23.376;2022-08-24T00:40:20;17.47;;;12.07;;
6029;SDS011;3043;42.682;23.376;2022-08-24T00:43:07;15.63;;;12.33;;
6029;SDS011;3043;42.682;23.376;2022-08-24T00:48:28;16.77;;;12.03;;
6029;SDS011;3043;42.682;23.376;2022-08-24T00:50:57;15.33;;;11.80;;
6029;SDS011;3043;42.682;23.376;2022-08-24T00:53:33;13.67;;;11.57;;
6029;SDS011;3043;42.682;23.376;2022-08-24T00:56:03;17.93;;;13.10;;
6029;SDS011;3043;42.682;23.376;2022-08-24T00:58:33;18.70;;;13.43;;
6029;SDS011;3043;42.682;23.376;2022-08-24T01:01:04;20.60;;;14.60;;
6029;SDS011;3043;42.682;23.376;2022-08-24T01:03:32;19.37;;;15.57;;
6029;SDS011;3043;42.682;23.376;2022-08-24T01:06:01;21.10;;;17.07;;
6029;SDS011;3043;42.682;23.376;2022-08-24T01:08:27;21.70;;;18.60;;
6029;SDS011;3043;42.682;23.376;2022-08-24T01:10:57;18.37;;;16.20;;
6029;SDS011;3043;42.682;23.376;2022-08-24T01:13:25;20.97;;;16.57;;
6029;SDS011;3043;42.682;23.376;2022-08-24T01:15:53;21.03;;;15.20;;
6029;SDS011;3043;42.682;23.376;2022-08-24T01:18:23;18.50;;;15.03;;
6029;SDS011;3043;42.682;23.376;2022-08-24T01:26:10;16.67;;;13.90;;
6029;SDS011;3043;42.682;23.376;2022-08-24T01:28:38;17.27;;;14.37;;
6029;SDS011;3043;42.682;23.376;2022-08-24T01:31:07;15.87;;;13.83;;
6029;SDS011;3043;42.682;23.376;2022-08-24T01:33:33;15.93;;;13.30;;
6029;SDS011;3043;42.682;23.376;2022-08-24T01:36:00;16.37;;;13.30;;
6029;SDS011;3043;42.682;23.376;2022-08-24T01:38:33;17.03;;;12.37;;
6029;SDS011;3043;42.682;23.376;2022-08-24T01:41:00;20.17;;;13.67;;
6029;SDS011;3043;42.682;23.376;2022-08-24T01:43:27;17.13;;;12.80;;
6029;SDS011;3043;42.682;23.376;2022-08-24T01:45:53;18.20;;;13.13;;
6029;SDS011;3043;42.682;23.376;2022-08-24T01:48:19;18.10;;;14.00;;
6029;SDS011;3043;42.682;23.376;2022-08-24T01:50:45;19.30;;;14.23;;
6029;SDS011;3043;42.682;23.376;2022-08-24T01:53:10;19.60;;;12.87;;
6029;SDS011;3043;42.682;23.376;2022-08-24T01:55:36;22.53;;;14.40;;
6029;SDS011;3043;42.682;23.376;2022-08-24T01:58:02;19.87;;;14.27;;
6029;SDS011;3043;42.682;23.376;2022-08-24T02:00:28;16.73;;;12.43;;
6029;SDS011;3043;42.682;23.376;2022-08-24T02:02:55;17.53;;;13.50;;
6029;SDS011;3043;42.682;23.376;2022-08-24T02:05:21;19.53;;;13.67;;
6029;SDS011;3043;42.682;23.376;2022-08-24T02:07:48;19.53;;;14.77;;
6029;SDS011;3043;42.682;23.376;2022-08-24T02:10:15;20.20;;;15.07;;
6029;SDS011;3043;42.682;23.376;2022-08-24T02:12:42;23.43;;;14.67;;
6029;SDS011;3043;42.682;23.376;2022-08-24T02:15:11;19.93;;;16.60;;
6029;SDS011;3043;42.682;23.376;2022-08-24T02:17:37;20.67;;;16.53;;
6029;SDS011;3043;42.682;23.376;2022-08-24T02:20:05;19.83;;;16.03;;
6029;SDS011;3043;42.682;23.376;2022-08-24T02:22:32;19.13;;;15.13;;
6029;SDS011;3043;42.682;23.376;2022-08-24T02:24:57;20.80;;;15.53;;
6029;SDS011;3043;42.682;23.376;2022-08-24T02:27:23;25.80;;;19.80;;
6029;SDS011;3043;42.682;23.376;2022-08-24T02:29:48;29.27;;;21.63;;
6029;SDS011;3043;42.682;23.376;2022-08-24T02:32:13;30.67;;;22.23;;
6029;SDS011;3043;42.682;23.376;2022-08-24T02:34:39;40.57;;;22.60;;
6029;SDS011;3043;42.682;23.376;2022-08-24T02:37:05;32.27;;;25.07;;
6029;SDS011;3043;42.682;23.376;2022-08-24T02:39:30;34.67;;;25.07;;
6029;SDS011;3043;42.682;23.376;2022-08-24T02:41:56;32.47;;;23.73;;
6029;SDS011;3043;42.682;23.376;2022-08-24T02:44:22;37.07;;;25.90;;
6029;SDS011;3043;42.682;23.376;2022-08-24T02:46:47;33.07;;;24.67;;
6029;SDS011;3043;42.682;23.376;2022-08-24T02:49:13;33.87;;;25.83;;
6029;SDS011;3043;42.682;23.376;2022-08-24T02:51:40;41.63;;;28.33;;
6029;SDS011;3043;42.682;23.376;2022-08-24T02:54:08;39.00;;;28.43;;
6029;SDS011;3043;42.682;23.376;2022-08-24T02:56:34;38.17;;;28.17;;
6029;SDS011;3043;42.682;23.376;2022-08-24T02:59:00;40.37;;;28.70;;
6029;SDS011;3043;42.682;23.376;2022-08-24T03:01:26;42.97;;;29.17;;
6029;SDS011;3043;42.682;23.376;2022-08-24T03:03:53;47.30;;;30.53;;
6029;SDS011;3043;42.682;23.376;2022-08-24T03:06:19;44.77;;;29.43;;
6029;SDS011;3043;42.682;23.376;2022-08-24T03:08:45;42.30;;;27.07;;
6029;SDS011;3043;42.682;23.376;2022-08-24T03:11:10;41.43;;;28.73;;
6029;SDS011;3043;42.682;23.376;2022-08-24T03:13:36;40.73;;;30.07;;
6029;SDS011;3043;42.682;23.376;2022-08-24T03:16:03;46.23;;;28.13;;
6029;SDS011;3043;42.682;23.376;2022-08-24T03:18:29;38.93;;;28.97;;
6029;SDS011;3043;42.682;23.376;2022-08-24T03:20:55;37.43;;;27.87;;
6029;SDS011;3043;42.682;23.376;2022-08-24T03:23:22;40.37;;;27.57;;
6029;SDS011;3043;42.682;23.376;2022-08-24T03:25:51;33.70;;;23.67;;
6029;SDS011;3043;42.682;23.376;2022-08-24T03:28:17;34.53;;;25.20;;
6029;SDS011;3043;42.682;23.376;2022-08-24T03:30:43;33.40;;;23.43;;
6029;SDS011;3043;42.682;23.376;2022-08-24T03:33:09;32.27;;;24.77;;
6029;SDS011;3043;42.682;23.376;2022-08-24T03:35:35;32.53;;;25.33;;
6029;SDS011;3043;42.682;23.376;2022-08-24T03:38:01;36.07;;;24.07;;
6029;SDS011;3043;42.682;23.376;2022-08-24T03:40:28;32.20;;;23.30;;
6029;SDS011;3043;42.682;23.376;2022-08-24T03:42:54;30.17;;;22.60;;
6029;SDS011;3043;42.682;23.376;2022-08-24T03:45:20;27.70;;;22.10;;
6029;SDS011;3043;42.682;23.376;2022-08-24T03:47:46;29.43;;;22.90;;
6029;SDS011;3043;42.682;23.376;2022-08-24T03:50:12;25.30;;;20.03;;
6029;SDS011;3043;42.682;23.376;2022-08-24T03:52:38;31.00;;;21.77;;
6029;SDS011;3043;42.682;23.376;2022-08-24T03:55:05;27.17;;;19.03;;
6029;SDS011;3043;42.682;23.376;2022-08-24T03:57:32;23.50;;;17.77;;
6029;SDS011;3043;42.682;23.376;2022-08-24T03:59:57;26.33;;;18.23;;
6029;SDS011;3043;42.682;23.376;2022-08-24T04:02:23;28.20;;;19.47;;
6029;SDS011;3043;42.682;23.376;2022-08-24T04:04:49;27.87;;;17.70;;
6029;SDS011;3043;42.682;23.376;2022-08-24T04:07:14;23.07;;;17.17;;
6029;SDS011;3043;42.682;23.376;2022-08-24T04:09:40;22.67;;;17.53;;
6029;SDS011;3043;42.682;23.376;2022-08-24T04:12:05;22.60;;;16.43;;
6029;SDS011;3043;42.682;23.376;2022-08-24T04:14:31;20.17;;;14.57;;
6029;SDS011;3043;42.682;23.376;2022-08-24T04:16:58;19.63;;;14.87;;
6029;SDS011;3043;42.682;23.376;2022-08-24T04:19:24;20.57;;;15.47;;
6029;SDS011;3043;42.682;23.376;2022-08-24T04:21:50;19.87;;;14.70;;
6029;SDS011;3043;42.682;23.376;2022-08-24T04:24:15;18.60;;;14.10;;
6029;SDS011;3043;42.682;23.376;2022-08-24T04:26:41;17.33;;;14.07;;
6029;SDS011;3043;42.682;23.376;2022-08-24T04:29:07;15.73;;;12.07;;
6029;SDS011;3043;42.682;23.376;2022-08-24T04:31:35;18.63;;;13.50;;
6029;SDS011;3043;42.682;23.376;2022-08-24T04:34:01;17.73;;;12.43;;
6029;SDS011;3043;42.682;23.376;2022-08-24T04:36:27;16.97;;;12.13;;
6029;SDS011;3043;42.682;23.376;2022-08-24T04:38:53;16.20;;;12.60;;
6029;SDS011;3043;42.682;23.376;2022-08-24T04:41:18;14.57;;;12.27;;
6029;SDS011;3043;42.682;23.376;2022-08-24T04:43:44;15.43;;;12.37;;
6029;SDS011;3043;42.682;23.376;2022-08-24T04:46:12;17.13;;;13.25;;
6029;SDS011;3043;42.682;23.376;2022-08-24T04:48:39;19.07;;;13.50;;
6029;SDS011;3043;42.682;23.376;2022-08-24T04:51:06;16.97;;;13.73;;
6029;SDS011;3043;42.682;23.376;2022-08-24T04:53:33;18.23;;;15.10;;
6029;SDS011;3043;42.682;23.376;2022-08-24T04:56:00;18.23;;;14.87;;
6029;SDS011;3043;42.682;23.376;2022-08-24T04:58:26;21.87;;;16.80;;
6029;SDS011;3043;42.682;23.376;2022-08-24T05:00:53;21.17;;;16.93;;
6029;SDS011;3043;42.682;23.376;2022-08-24T05:03:19;21.80;;;15.80;;
6029;SDS011;3043;42.682;23.376;2022-08-24T05:05:46;20.03;;;15.63;;
6029;SDS011;3043;42.682;23.376;2022-08-24T05:08:14;22.73;;;16.87;;
6029;SDS011;3043;42.682;23.376;2022-08-24T05:10:41;21.23;;;16.93;;
6029;SDS011;3043;42.682;23.376;2022-08-24T05:13:09;23.40;;;16.93;;
6029;SDS011;3043;42.682;23.376;2022-08-24T05:15:35;22.07;;;17.10;;
6029;SDS011;3043;42.682;23.376;2022-08-24T05:18:04;20.10;;;16.20;;
6029;SDS011;3043;42.682;23.376;2022-08-24T05:20:31;25.17;;;16.27;;
6029;SDS011;3043;42.682;23.376;2022-08-24T05:22:57;17.60;;;14.67;;
6029;SDS011;3043;42.682;23.376;2022-08-24T05:25:22;19.57;;;14.00;;
6029;SDS011;3043;42.682;23.376;2022-08-24T05:27:48;15.10;;;12.77;;
6029;SDS011;3043;42.682;23.376;2022-08-24T05:30:13;23.03;;;13.80;;
6029;SDS011;3043;42.682;23.376;2022-08-24T05:32:39;17.23;;;13.17;;
6029;SDS011;3043;42.682;23.376;2022-08-24T05:35:05;20.87;;;13.33;;
6029;SDS011;3043;42.682;23.376;2022-08-24T05:37:34;15.67;;;12.20;;
6029;SDS011;3043;42.682;23.376;2022-08-24T05:40:02;17.03;;;12.27;;
6029;SDS011;3043;42.682;23.376;2022-08-24T05:42:33;15.37;;;11.83;;
6029;SDS011;3043;42.682;23.376;2022-08-24T05:44:59;15.10;;;11.80;;
6029;SDS011;3043;42.682;23.376;2022-08-24T05:47:24;15.77;;;10.57;;
6029;SDS011;3043;42.682;23.376;2022-08-24T05:49:50;14.63;;;10.63;;
6029;SDS011;3043;42.682;23.376;2022-08-24T05:52:21;16.13;;;11.87;;
6029;SDS011;3043;42.682;23.376;2022-08-24T05:54:57;18.13;;;11.03;;
6029;SDS011;3043;42.682;23.376;2022-08-24T05:57:24;19.60;;;15.60;;
6029;SDS011;3043;42.682;23.376;2022-08-24T05:59:51;13.33;;;9.90;;
6029;SDS011;3043;42.682;23.376;2022-08-24T06:02:17;15.47;;;9.70;;
6029;SDS011;3043;42.682;23.376;2022-08-24T06:04:43;12.80;;;9.47;;
6029;SDS011;3043;42.682;23.376;2022-08-24T06:07:09;13.87;;;9.63;;
6029;SDS011;3043;42.682;23.376;2022-08-24T06:09:36;14.43;;;8.57;;
6029;SDS011;3043;42.682;23.376;2022-08-24T06:12:02;12.40;;;8.23;;
6029;SDS011;3043;42.682;23.376;2022-08-24T06:14:28;11.03;;;8.17;;
6029;SDS011;3043;42.682;23.376;2022-08-24T06:16:54;11.80;;;8.60;;
6029;SDS011;3043;42.682;23.376;2022-08-24T06:19:20;12.17;;;8.57;;
6029;SDS011;3043;42.682;23.376;2022-08-24T06:21:47;12.63;;;8.97;;
6029;SDS011;3043;42.682;23.376;2022-08-24T06:24:14;13.07;;;9.00;;
6029;SDS011;3043;42.682;23.376;2022-08-24T06:26:41;14.10;;;8.57;;
6029;SDS011;3043;42.682;23.376;2022-08-24T06:29:26;11.37;;;7.77;;
6029;SDS011;3043;42.682;23.376;2022-08-24T06:31:52;11.65;;;8.15;;
6029;SDS011;3043;42.682;23.376;2022-08-24T06:34:17;9.98;;;8.18;;
6029;SDS011;3043;42.682;23.376;2022-08-24T06:36:43;10.60;;;8.15;;
6029;SDS011;3043;42.682;23.376;2022-08-24T06:39:09;14.63;;;8.18;;
6029;SDS011;3043;42.682;23.376;2022-08-24T06:41:35;12.80;;;9.23;;
6029;SDS011;3043;42.682;23.376;2022-08-24T06:44:01;11.85;;;8.82;;
6029;SDS011;3043;42.682;23.376;2022-08-24T06:46:27;12.23;;;8.95;;
6029;SDS011;3043;42.682;23.376;2022-08-24T06:48:53;13.02;;;8.07;;
6029;SDS011;3043;42.682;23.376;2022-08-24T06:51:19;11.93;;;8.45;;
6029;SDS011;3043;42.682;23.376;2022-08-24T06:53:49;16.70;;;10.57;;
6029;SDS011;3043;42.682;23.376;2022-08-24T06:56:15;12.55;;;9.20;;
6029;SDS011;3043;42.682;23.376;2022-08-24T06:58:41;9.90;;;7.22;;
6029;SDS011;3043;42.682;23.376;2022-08-24T07:01:17;8.40;;;6.75;;
6029;SDS011;3043;42.682;23.376;2022-08-24T07:03:45;7.95;;;6.03;;
6029;SDS011;3043;42.682;23.376;2022-08-24T07:06:11;19.65;;;16.65;;
6029;SDS011;3043;42.682;23.376;2022-08-24T07:08:38;11.32;;;6.13;;
6029;SDS011;3043;42.682;23.376;2022-08-24T07:11:06;9.32;;;5.70;;
6029;SDS011;3043;42.682;23.376;2022-08-24T07:13:32;8.80;;;5.70;;
6029;SDS011;3043;42.682;23.376;2022-08-24T07:15:58;7.60;;;5.82;;
6029;SDS011;3043;42.682;23.376;2022-08-24T07:18:24;8.13;;;5.47;;
6029;SDS011;3043;42.682;23.376;2022-08-24T07:20:50;8.77;;;5.00;;
6029;SDS011;3043;42.682;23.376;2022-08-24T07:23:16;7.45;;;5.15;;
6029;SDS011;3043;42.682;23.376;2022-08-24T07:25:44;6.47;;;5.00;;
6029;SDS011;3043;42.682;23.376;2022-08-24T07:28:10;8.75;;;5.45;;
6029;SDS011;3043;42.682;23.376;2022-08-24T07:30:39;7.03;;;4.88;;
6029;SDS011;3043;42.682;23.376;2022-08-24T07:33:06;9.80;;;5.82;;
6029;SDS011;3043;42.682;23.376;2022-08-24T07:35:33;7.88;;;5.88;;
6029;SDS011;3043;42.682;23.376;2022-08-24T07:37:59;7.68;;;5.07;;
6029;SDS011;3043;42.682;23.376;2022-08-24T07:40:26;8.10;;;5.78;;
6029;SDS011;3043;42.682;23.376;2022-08-24T07:42:54;8.05;;;4.95;;
6029;SDS011;3043;42.682;23.376;2022-08-24T07:45:21;7.30;;;5.05;;
6029;SDS011;3043;42.682;23.376;2022-08-24T07:47:47;8.38;;;5.68;;
6029;SDS011;3043;42.682;23.376;2022-08-24T07:50:14;8.05;;;4.95;;
6029;SDS011;3043;42.682;23.376;2022-08-24T07:52:41;9.38;;;5.22;;
6029;SDS011;3043;42.682;23.376;2022-08-24T07:55:07;7.80;;;5.35;;
6029;SDS011;3043;42.682;23.376;2022-08-24T07:57:33;13.77;;;7.18;;
6029;SDS011;3043;42.682;23.376;2022-08-24T07:59:59;10.48;;;5.38;;
6029;SDS011;3043;42.682;23.376;2022-08-24T08:02:25;8.30;;;5.63;;
6029;SDS011;3043;42.682;23.376;2022-08-24T08:04:53;7.60;;;5.55;;
6029;SDS011;3043;42.682;23.376;2022-08-24T08:07:20;8.65;;;4.97;;
6029;SDS011;3043;42.682;23.376;2022-08-24T08:09:46;6.85;;;4.47;;
6029;SDS011;3043;42.682;23.376;2022-08-24T08:12:13;8.25;;;4.40;;
6029;SDS011;3043;42.682;23.376;2022-08-24T08:14:39;6.63;;;4.40;;
6029;SDS011;3043;42.682;23.376;2022-08-24T08:17:04;6.63;;;4.35;;
6029;SDS011;3043;42.682;23.376;2022-08-24T08:19:31;7.38;;;4.40;;
6029;SDS011;3043;42.682;23.376;2022-08-24T08:21:57;6.53;;;4.53;;
6029;SDS011;3043;42.682;23.376;2022-08-24T08:24:41;7.00;;;4.72;;
6029;SDS011;3043;42.682;23.376;2022-08-24T08:27:08;9.35;;;4.55;;
6029;SDS011;3043;42.682;23.376;2022-08-24T08:29:35;8.02;;;4.75;;
6029;SDS011;3043;42.682;23.376;2022-08-24T08:32:04;7.07;;;4.38;;
6029;SDS011;3043;42.682;23.376;2022-08-24T08:34:29;8.18;;;5.45;;
6029;SDS011;3043;42.682;23.376;2022-08-24T08:36:55;6.40;;;4.28;;
6029;SDS011;3043;42.682;23.376;2022-08-24T08:39:21;7.28;;;4.68;;
6029;SDS011;3043;42.682;23.376;2022-08-24T09:00:58;7.88;;;4.70;;
6029;SDS011;3043;42.682;23.376;2022-08-24T09:03:36;7.72;;;5.28;;
6029;SDS011;3043;42.682;23.376;2022-08-24T09:22:22;7.63;;;5.07;;
6029;SDS011;3043;42.682;23.376;2022-08-24T09:58:32;6.63;;;4.80;;
6029;SDS011;3043;42.682;23.376;2022-08-24T10:04:30;7.00;;;4.88;;
6029;SDS011;3043;42.682;23.376;2022-08-24T10:07:13;8.23;;;5.20;;
6029;SDS011;3043;42.682;23.376;2022-08-24T10:18:38;8.60;;;4.55;;
6029;SDS011;3043;42.682;23.376;2022-08-24T10:21:31;8.05;;;4.80;;
6029;SDS011;3043;42.682;23.376;2022-08-24T10:35:13;7.38;;;4.93;;
6029;SDS011;3043;42.682;23.376;2022-08-24T10:54:34;9.25;;;5.03;;
6029;SDS011;3043;42.682;23.376;2022-08-24T10:57:08;10.20;;;5.88;;
6029;SDS011;3043;42.682;23.376;2022-08-24T11:02:45;9.00;;;5.40;;
6029;SDS011;3043;42.682;23.376;2022-08-24T11:05:15;10.00;;;5.78;;
6029;SDS011;3043;42.682;23.376;2022-08-24T11:10:36;8.73;;;5.50;;
6029;SDS011;3043;42.682;23.376;2022-08-24T11:16:01;10.85;;;5.20;;
6029;SDS011;3043;42.682;23.376;2022-08-24T11:18:47;10.65;;;5.53;;
6029;SDS011;3043;42.682;23.376;2022-08-24T11:21:31;7.22;;;5.30;;
6029;SDS011;3043;42.682;23.376;2022-08-24T11:26:58;9.68;;;5.88;;
6029;SDS011;3043;42.682;23.376;2022-08-24T11:34:53;10.48;;;6.25;;
6029;SDS011;3043;42.682;23.376;2022-08-24T11:37:22;8.75;;;5.40;;
6029;SDS011;3043;42.682;23.376;2022-08-24T11:39:55;11.27;;;5.70;;
6029;SDS011;3043;42.682;23.376;2022-08-24T11:51:19;13.13;;;5.82;;
6029;SDS011;3043;42.682;23.376;2022-08-24T12:01:59;12.35;;;6.30;;
6029;SDS011;3043;42.682;23.376;2022-08-24T12:15:20;12.85;;;6.43;;
6029;SDS011;3043;42.682;23.376;2022-08-24T12:20:32;10.10;;;6.40;;
6029;SDS011;3043;42.682;23.376;2022-08-24T12:23:05;11.85;;;7.13;;
6029;SDS011;3043;42.682;23.376;2022-08-24T12:25:35;10.90;;;7.60;;
6029;SDS011;3043;42.682;23.376;2022-08-24T12:29:22;12.30;;;7.70;;
6029;SDS011;3043;42.682;23.376;2022-08-24T12:31:25;13.13;;;7.37;;
6029;SDS011;3043;42.682;23.376;2022-08-24T12:34:09;10.97;;;7.10;;
6029;SDS011;3043;42.682;23.376;2022-08-24T12:36:45;10.07;;;7.00;;
6029;SDS011;3043;42.682;23.376;2022-08-24T12:39:27;11.47;;;6.93;;
6029;SDS011;3043;42.682;23.376;2022-08-24T12:42:07;11.30;;;7.87;;
6029;SDS011;3043;42.682;23.376;2022-08-24T12:47:08;11.00;;;6.60;;
6029;SDS011;3043;42.682;23.376;2022-08-24T12:49:42;13.53;;;6.67;;
6029;SDS011;3043;42.682;23.376;2022-08-24T12:52:37;9.87;;;7.27;;
6029;SDS011;3043;42.682;23.376;2022-08-24T12:55:43;10.03;;;6.47;;
6029;SDS011;3043;42.682;23.376;2022-08-24T12:58:33;9.53;;;6.90;;
6029;SDS011;3043;42.682;23.376;2022-08-24T13:01:04;12.53;;;6.30;;
6029;SDS011;3043;42.682;23.376;2022-08-24T13:03:35;9.27;;;6.97;;
6029;SDS011;3043;42.682;23.376;2022-08-24T13:06:04;14.37;;;6.87;;
6029;SDS011;3043;42.682;23.376;2022-08-24T13:08:41;11.90;;;7.23;;
6029;SDS011;3043;42.682;23.376;2022-08-24T13:11:11;15.47;;;7.40;;
6029;SDS011;3043;42.682;23.376;2022-08-24T13:13:47;11.63;;;7.07;;
6029;SDS011;3043;42.682;23.376;2022-08-24T13:29:36;11.50;;;7.90;;
6029;SDS011;3043;42.682;23.376;2022-08-24T13:32:06;13.53;;;7.53;;
6029;SDS011;3043;42.682;23.376;2022-08-24T13:34:41;14.80;;;8.40;;
6029;SDS011;3043;42.682;23.376;2022-08-24T13:37:12;12.83;;;7.67;;
6029;SDS011;3043;42.682;23.376;2022-08-24T13:51:12;13.70;;;8.13;;
6029;SDS011;3043;42.682;23.376;2022-08-24T13:53:46;16.37;;;7.73;;
6029;SDS011;3043;42.682;23.376;2022-08-24T14:17:24;12.53;;;6.77;;
6029;SDS011;3043;42.682;23.376;2022-08-24T14:25:25;12.60;;;7.13;;
6029;SDS011;3043;42.682;23.376;2022-08-24T14:52:10;14.27;;;7.00;;
6029;SDS011;3043;42.682;23.376;2022-08-24T14:54:55;14.43;;;8.47;;
6029;SDS011;3043;42.682;23.376;2022-08-24T15:00:19;18.87;;;10.33;;
6029;SDS011;3043;42.682;23.376;2022-08-24T15:08:05;20.00;;;10.37;;
6029;SDS011;3043;42.682;23.376;2022-08-24T15:10:43;18.63;;;9.67;;
6029;SDS011;3043;42.682;23.376;2022-08-24T15:19:25;17.87;;;9.63;;
6029;SDS011;3043;42.682;23.376;2022-08-24T15:22:06;18.00;;;9.50;;
6029;SDS011;3043;42.682;23.376;2022-08-24T15:33:00;20.77;;;9.50;;
6029;SDS011;3043;42.682;23.376;2022-08-24T15:35:33;18.10;;;8.80;;
6029;SDS011;3043;42.682;23.376;2022-08-24T15:40:47;18.23;;;8.93;;
6029;SDS011;3043;42.682;23.376;2022-08-24T15:43:26;21.60;;;8.77;;
6029;SDS011;3043;42.682;23.376;2022-08-24T15:45:51;21.57;;;9.60;;
6029;SDS011;3043;42.682;23.376;2022-08-24T15:48:18;17.77;;;8.77;;
6029;SDS011;3043;42.682;23.376;2022-08-24T15:50:50;20.17;;;9.07;;
6029;SDS011;3043;42.682;23.376;2022-08-24T15:53:25;16.33;;;9.27;;
6029;SDS011;3043;42.682;23.376;2022-08-24T15:58:44;26.67;;;9.80;;
6029;SDS011;3043;42.682;23.376;2022-08-24T16:03:56;21.00;;;8.53;;
6029;SDS011;3043;42.682;23.376;2022-08-24T16:11:27;20.47;;;8.60;;
6029;SDS011;3043;42.682;23.376;2022-08-24T16:13:55;23.33;;;8.97;;
6029;SDS011;3043;42.682;23.376;2022-08-24T16:16:29;21.60;;;9.03;;
6029;SDS011;3043;42.682;23.376;2022-08-24T16:18:59;25.27;;;9.10;;
6029;SDS011;3043;42.682;23.376;2022-08-24T16:21:50;19.97;;;9.27;;
6029;SDS011;3043;42.682;23.376;2022-08-24T16:32:08;23.13;;;10.10;;
6029;SDS011;3043;42.682;23.376;2022-08-24T16:34:44;19.07;;;8.77;;
6029;SDS011;3043;42.682;23.376;2022-08-24T16:37:11;17.90;;;9.23;;
6029;SDS011;3043;42.682;23.376;2022-08-24T16:39:38;25.80;;;10.33;;
6029;SDS011;3043;42.682;23.376;2022-08-24T16:42:05;27.30;;;9.60;;
6029;SDS011;3043;42.682;23.376;2022-08-24T16:44:37;23.50;;;10.37;;
6029;SDS011;3043;42.682;23.376;2022-08-24T16:47:07;24.73;;;9.63;;
6029;SDS011;3043;42.682;23.376;2022-08-24T16:49:34;29.00;;;9.90;;
6029;SDS011;3043;42.682;23.376;2022-08-24T16:52:00;29.27;;;9.93;;
6029;SDS011;3043;42.682;23.376;2022-08-24T16:54:27;25.13;;;10.33;;
6029;SDS011;3043;42.682;23.376;2022-08-24T16:56:54;21.80;;;9.17;;
6029;SDS011;3043;42.682;23.376;2022-08-24T16:59:24;27.47;;;10.47;;
6029;SDS011;3043;42.682;23.376;2022-08-24T17:01:52;37.33;;;11.97;;
6029;SDS011;3043;42.682;23.376;2022-08-24T17:04:18;24.13;;;10.90;;
6029;SDS011;3043;42.682;23.376;2022-08-24T17:06:44;27.40;;;12.67;;
6029;SDS011;3043;42.682;23.376;2022-08-24T17:09:12;26.10;;;10.60;;
6029;SDS011;3043;42.682;23.376;2022-08-24T17:11:37;31.07;;;10.07;;
6029;SDS011;3043;42.682;23.376;2022-08-24T17:14:03;24.50;;;10.30;;
6029;SDS011;3043;42.682;23.376;2022-08-24T17:16:30;25.07;;;9.53;;
6029;SDS011;3043;42.682;23.376;2022-08-24T17:18:56;26.50;;;10.63;;
6029;SDS011;3043;42.682;23.376;2022-08-24T17:21:23;30.33;;;10.63;;
6029;SDS011;3043;42.682;23.376;2022-08-24T17:23:50;24.13;;;10.30;;
6029;SDS011;3043;42.682;23.376;2022-08-24T17:26:16;25.00;;;13.00;;
6029;SDS011;3043;42.682;23.376;2022-08-24T17:28:43;24.77;;;10.33;;
6029;SDS011;3043;42.682;23.376;2022-08-24T17:31:21;29.27;;;9.33;;
6029;SDS011;3043;42.682;23.376;2022-08-24T17:33:50;27.70;;;11.03;;
6029;SDS011;3043;42.682;23.376;2022-08-24T17:36:17;29.17;;;13.00;;
6029;SDS011;3043;42.682;23.376;2022-08-24T17:38:46;30.33;;;12.33;;
6029;SDS011;3043;42.682;23.376;2022-08-24T17:41:14;32.13;;;13.07;;
6029;SDS011;3043;42.682;23.376;2022-08-24T17:43:40;27.97;;;11.43;;
6029;SDS011;3043;42.682;23.376;2022-08-24T17:46:07;24.67;;;13.20;;
6029;SDS011;3043;42.682;23.376;2022-08-24T17:48:35;29.07;;;13.93;;
6029;SDS011;3043;42.682;23.376;2022-08-24T17:51:01;34.03;;;14.90;;
6029;SDS011;3043;42.682;23.376;2022-08-24T17:53:27;27.87;;;12.30;;
6029;SDS011;3043;42.682;23.376;2022-08-24T17:55:53;25.67;;;12.00;;
6029;SDS011;3043;42.682;23.376;2022-08-24T17:58:18;21.23;;;10.93;;
6029;SDS011;3043;42.682;23.376;2022-08-24T18:00:43;25.70;;;11.57;;
6029;SDS011;3043;42.682;23.376;2022-08-24T18:03:09;27.10;;;12.60;;
6029;SDS011;3043;42.682;23.376;2022-08-24T18:05:35;30.10;;;12.13;;
6029;SDS011;3043;42.682;23.376;2022-08-24T18:08:01;25.63;;;11.13;;
6029;SDS011;3043;42.682;23.376;2022-08-24T18:10:28;36.00;;;12.83;;
6029;SDS011;3043;42.682;23.376;2022-08-24T18:12:56;22.73;;;12.97;;
6029;SDS011;3043;42.682;23.376;2022-08-24T18:15:23;26.10;;;12.67;;
6029;SDS011;3043;42.682;23.376;2022-08-24T18:17:50;28.80;;;11.80;;
6029;SDS011;3043;42.682;23.376;2022-08-24T18:20:26;29.23;;;12.23;;
6029;SDS011;3043;42.682;23.376;2022-08-24T18:22:55;24.87;;;10.53;;
6029;SDS011;3043;42.682;23.376;2022-08-24T18:25:21;17.03;;;10.00;;
6029;SDS011;3043;42.682;23.376;2022-08-24T18:27:48;28.40;;;10.70;;
6029;SDS011;3043;42.682;23.376;2022-08-24T18:30:19;22.47;;;10.17;;
6029;SDS011;3043;42.682;23.376;2022-08-24T18:32:52;27.43;;;11.13;;
6029;SDS011;3043;42.682;23.376;2022-08-24T18:35:18;19.33;;;8.87;;
6029;SDS011;3043;42.682;23.376;2022-08-24T18:37:44;25.73;;;10.27;;
6029;SDS011;3043;42.682;23.376;2022-08-24T18:40:10;29.10;;;11.53;;
6029;SDS011;3043;42.682;23.376;2022-08-24T18:42:36;24.70;;;11.07;;
6029;SDS011;3043;42.682;23.376;2022-08-24T18:45:03;34.17;;;11.77;;
6029;SDS011;3043;42.682;23.376;2022-08-24T18:47:29;22.13;;;11.40;;
6029;SDS011;3043;42.682;23.376;2022-08-24T18:49:55;25.03;;;13.13;;
6029;SDS011;3043;42.682;23.376;2022-08-24T18:52:20;31.80;;;11.77;;
6029;SDS011;3043;42.682;23.376;2022-08-24T18:54:46;25.33;;;13.90;;
6029;SDS011;3043;42.682;23.376;2022-08-24T18:57:14;25.07;;;12.13;;
6029;SDS011;3043;42.682;23.376;2022-08-24T18:59:40;18.27;;;11.17;;
6029;SDS011;3043;42.682;23.376;2022-08-24T19:02:27;22.47;;;10.23;;
6029;SDS011;3043;42.682;23.376;2022-08-24T19:04:59;27.27;;;11.97;;
6029;SDS011;3043;42.682;23.376;2022-08-24T19:07:25;28.43;;;11.83;;
6029;SDS011;3043;42.682;23.376;2022-08-24T19:09:51;27.47;;;13.60;;
6029;SDS011;3043;42.682;23.376;2022-08-24T19:12:17;27.20;;;14.87;;
6029;SDS011;3043;42.682;23.376;2022-08-24T19:14:43;24.50;;;14.03;;
6029;SDS011;3043;42.682;23.376;2022-08-24T19:17:09;24.53;;;13.27;;
6029;SDS011;3043;42.682;23.376;2022-08-24T19:19:34;24.27;;;12.30;;
6029;SDS011;3043;42.682;23.376;2022-08-24T19:22:00;20.37;;;11.53;;
6029;SDS011;3043;42.682;23.376;2022-08-24T19:24:27;25.53;;;13.00;;
6029;SDS011;3043;42.682;23.376;2022-08-24T19:26:53;28.30;;;13.20;;
6029;SDS011;3043;42.682;23.376;2022-08-24T19:29:20;27.50;;;14.10;;
6029;SDS011;3043;42.682;23.376;2022-08-24T19:31:46;29.33;;;14.83;;
6029;SDS011;3043;42.682;23.376;2022-08-24T19:34:12;31.30;;;14.83;;
6029;SDS011;3043;42.682;23.376;2022-08-24T19:36:38;29.00;;;13.13;;
6029;SDS011;3043;42.682;23.376;2022-08-24T19:39:04;27.90;;;13.03;;